sensor_id;sensor_type;location;lat;lon;timestamp;P1;durP1;ratioP1;P2;durP2;ratioP2
58017;SDS011;43810;50.860;19.226;2023-04-07T00:01:56;68.53;;;24.70;;
58017;SDS011;43810;50.860;19.226;2023-04-07T00:04:22;67.10;;;23.98;;
58017;SDS011;43810;50.860;19.226;2023-04-07T00:06:48;65.50;;;23.30;;
58017;SDS011;43810;50.860;19.226;2023-04-07T00:09:14;73.28;;;25.27;;
58017;SDS011;43810;50.860;19.226;2023-04-07T00:11:40;65.70;;;23.23;;
58017;SDS011;43810;50.860;19.226;2023-04-07T00:14:06;60.17;;;23.17;;
58017;SDS011;43810;50.860;19.226;2023-04-07T00:16:32;73.03;;;25.92;;
58017;SDS011;43810;50.860;19.226;2023-04-07T00:18:58;72.07;;;25.63;;
58017;SDS011;43810;50.860;19.226;2023-04-07T00:21:24;72.35;;;23.92;;
58017;SDS011;43810;50.860;19.226;2023-04-07T00:23:51;60.13;;;23.45;;
58017;SDS011;43810;50.860;19.226;2023-04-07T00:26:17;67.10;;;24.42;;
58017;SDS011;43810;50.860;19.226;2023-04-07T00:28:43;63.95;;;23.25;;
58017;SDS011;43810;50.860;19.226;2023-04-07T00:31:09;62.75;;;24.00;;
58017;SDS011;43810;50.860;19.226;2023-04-07T00:33:35;60.00;;;22.88;;
58017;SDS011;43810;50.860;19.226;2023-04-07T00:36:00;67.97;;;24.23;;
58017;SDS011;43810;50.860;19.226;2023-04-07T00:38:26;62.13;;;22.75;;
58017;SDS011;43810;50.860;19.226;2023-04-07T00:40:58;57.92;;;22.52;;
58017;SDS011;43810;50.860;19.226;2023-04-07T00:43:25;68.78;;;23.08;;
58017;SDS011;43810;50.860;19.226;2023-04-07T00:45:51;68.18;;;24.13;;
58017;SDS011;43810;50.860;19.226;2023-04-07T00:48:18;69.15;;;22.95;;
58017;SDS011;43810;50.860;19.226;2023-04-07T00:50:44;69.97;;;22.40;;
58017;SDS011;43810;50.860;19.226;2023-04-07T00:53:11;61.25;;;22.10;;
58017;SDS011;43810;50.860;19.226;2023-04-07T00:55:37;65.88;;;23.20;;
58017;SDS011;43810;50.860;19.226;2023-04-07T00:58:03;65.45;;;21.92;;
58017;SDS011;43810;50.860;19.226;2023-04-07T01:00:30;61.08;;;22.77;;
58017;SDS011;43810;50.860;19.226;2023-04-07T01:03:17;65.82;;;23.13;;
58017;SDS011;43810;50.860;19.226;2023-04-07T01:05:49;70.38;;;22.88;;
58017;SDS011;43810;50.860;19.226;2023-04-07T01:08:23;59.13;;;22.67;;
58017;SDS011;43810;50.860;19.226;2023-04-07T01:13:31;67.65;;;23.10;;
58017;SDS011;43810;50.860;19.226;2023-04-07T01:16:25;72.07;;;22.15;;
58017;SDS011;43810;50.860;19.226;2023-04-07T01:18:56;54.25;;;21.05;;
58017;SDS011;43810;50.860;19.226;2023-04-07T01:21:26;64.25;;;22.58;;
58017;SDS011;43810;50.860;19.226;2023-04-07T01:27:13;69.55;;;21.35;;
58017;SDS011;43810;50.860;19.226;2023-04-07T01:29:46;64.18;;;20.95;;
58017;SDS011;43810;50.860;19.226;2023-04-07T01:32:14;60.90;;;21.50;;
58017;SDS011;43810;50.860;19.226;2023-04-07T01:34:46;60.67;;;22.02;;
58017;SDS011;43810;50.860;19.226;2023-04-07T01:37:16;70.32;;;22.08;;
58017;SDS011;43810;50.860;19.226;2023-04-07T01:39:42;62.03;;;23.08;;
58017;SDS011;43810;50.860;19.226;2023-04-07T01:42:08;61.20;;;20.95;;
58017;SDS011;43810;50.860;19.226;2023-04-07T01:44:35;68.55;;;22.73;;
58017;SDS011;43810;50.860;19.226;2023-04-07T01:47:01;69.63;;;22.70;;
58017;SDS011;43810;50.860;19.226;2023-04-07T01:49:29;67.45;;;21.23;;
58017;SDS011;43810;50.860;19.226;2023-04-07T01:51:56;74.97;;;23.25;;
58017;SDS011;43810;50.860;19.226;2023-04-07T01:54:23;54.17;;;19.92;;
58017;SDS011;43810;50.860;19.226;2023-04-07T01:56:49;58.10;;;18.90;;
58017;SDS011;43810;50.860;19.226;2023-04-07T01:59:15;55.83;;;19.33;;
58017;SDS011;43810;50.860;19.226;2023-04-07T02:01:41;61.33;;;20.67;;
58017;SDS011;43810;50.860;19.226;2023-04-07T02:04:10;59.10;;;19.92;;
58017;SDS011;43810;50.860;19.226;2023-04-07T02:09:09;50.95;;;17.92;;
58017;SDS011;43810;50.860;19.226;2023-04-07T02:11:37;55.33;;;19.00;;
58017;SDS011;43810;50.860;19.226;2023-04-07T02:14:05;67.82;;;21.52;;
58017;SDS011;43810;50.860;19.226;2023-04-07T02:16:33;62.15;;;19.38;;
58017;SDS011;43810;50.860;19.226;2023-04-07T02:19:00;62.28;;;20.65;;
58017;SDS011;43810;50.860;19.226;2023-04-07T02:21:27;58.03;;;20.23;;
58017;SDS011;43810;50.860;19.226;2023-04-07T02:23:55;54.08;;;20.15;;
58017;SDS011;43810;50.860;19.226;2023-04-07T02:26:21;52.08;;;19.27;;
58017;SDS011;43810;50.860;19.226;2023-04-07T02:28:47;51.83;;;19.33;;
58017;SDS011;43810;50.860;19.226;2023-04-07T02:31:12;53.35;;;21.38;;
58017;SDS011;43810;50.860;19.226;2023-04-07T02:33:38;57.72;;;19.08;;
58017;SDS011;43810;50.860;19.226;2023-04-07T02:36:04;53.13;;;18.45;;
58017;SDS011;43810;50.860;19.226;2023-04-07T02:38:30;53.83;;;19.45;;
58017;SDS011;43810;50.860;19.226;2023-04-07T02:40:56;57.75;;;20.80;;
58017;SDS011;43810;50.860;19.226;2023-04-07T02:43:23;61.70;;;18.50;;
58017;SDS011;43810;50.860;19.226;2023-04-07T02:45:49;61.78;;;18.33;;
58017;SDS011;43810;50.860;19.226;2023-04-07T02:48:16;58.25;;;18.65;;
58017;SDS011;43810;50.860;19.226;2023-04-07T02:50:41;60.88;;;19.65;;
58017;SDS011;43810;50.860;19.226;2023-04-07T02:53:07;53.15;;;19.58;;
58017;SDS011;43810;50.860;19.226;2023-04-07T02:55:33;61.25;;;21.50;;
58017;SDS011;43810;50.860;19.226;2023-04-07T02:57:59;66.78;;;22.30;;
58017;SDS011;43810;50.860;19.226;2023-04-07T03:00:25;68.85;;;23.35;;
58017;SDS011;43810;50.860;19.226;2023-04-07T03:02:51;68.22;;;21.83;;
58017;SDS011;43810;50.860;19.226;2023-04-07T03:05:17;76.55;;;21.05;;
58017;SDS011;43810;50.860;19.226;2023-04-07T03:07:43;69.35;;;23.98;;
58017;SDS011;43810;50.860;19.226;2023-04-07T03:10:09;71.63;;;22.80;;
58017;SDS011;43810;50.860;19.226;2023-04-07T03:12:35;60.03;;;21.65;;
58017;SDS011;43810;50.860;19.226;2023-04-07T03:15:01;62.78;;;21.92;;
58017;SDS011;43810;50.860;19.226;2023-04-07T03:17:27;73.30;;;21.80;;
58017;SDS011;43810;50.860;19.226;2023-04-07T03:19:53;82.25;;;25.58;;
58017;SDS011;43810;50.860;19.226;2023-04-07T03:22:19;82.60;;;26.73;;
58017;SDS011;43810;50.860;19.226;2023-04-07T03:24:44;83.65;;;25.63;;
58017;SDS011;43810;50.860;19.226;2023-04-07T03:27:10;77.30;;;23.42;;
58017;SDS011;43810;50.860;19.226;2023-04-07T03:29:36;77.97;;;22.80;;
58017;SDS011;43810;50.860;19.226;2023-04-07T03:32:02;74.28;;;21.98;;
58017;SDS011;43810;50.860;19.226;2023-04-07T03:34:28;79.45;;;22.80;;
58017;SDS011;43810;50.860;19.226;2023-04-07T03:36:53;71.13;;;21.15;;
58017;SDS011;43810;50.860;19.226;2023-04-07T03:39:19;79.30;;;24.52;;
58017;SDS011;43810;50.860;19.226;2023-04-07T03:41:48;85.32;;;23.42;;
58017;SDS011;43810;50.860;19.226;2023-04-07T03:44:16;77.90;;;20.90;;
58017;SDS011;43810;50.860;19.226;2023-04-07T03:46:42;71.38;;;21.42;;
58017;SDS011;43810;50.860;19.226;2023-04-07T03:49:10;83.38;;;21.70;;
58017;SDS011;43810;50.860;19.226;2023-04-07T03:51:36;74.20;;;20.90;;
58017;SDS011;43810;50.860;19.226;2023-04-07T03:54:02;75.28;;;20.77;;
58017;SDS011;43810;50.860;19.226;2023-04-07T03:56:28;72.10;;;22.00;;
58017;SDS011;43810;50.860;19.226;2023-04-07T03:58:53;84.40;;;24.33;;
58017;SDS011;43810;50.860;19.226;2023-04-07T04:01:20;66.47;;;21.02;;
58017;SDS011;43810;50.860;19.226;2023-04-07T04:03:46;83.53;;;23.13;;
58017;SDS011;43810;50.860;19.226;2023-04-07T04:06:12;77.30;;;22.15;;
58017;SDS011;43810;50.860;19.226;2023-04-07T04:08:37;81.40;;;21.58;;
58017;SDS011;43810;50.860;19.226;2023-04-07T04:11:04;72.53;;;22.02;;
58017;SDS011;43810;50.860;19.226;2023-04-07T04:13:29;73.35;;;20.83;;
58017;SDS011;43810;50.860;19.226;2023-04-07T04:15:55;79.63;;;22.48;;
58017;SDS011;43810;50.860;19.226;2023-04-07T04:18:21;110.47;;;27.65;;
58017;SDS011;43810;50.860;19.226;2023-04-07T04:20:47;113.88;;;24.30;;
58017;SDS011;43810;50.860;19.226;2023-04-07T04:23:13;89.35;;;24.60;;
58017;SDS011;43810;50.860;19.226;2023-04-07T04:25:39;79.75;;;23.30;;
58017;SDS011;43810;50.860;19.226;2023-04-07T04:28:06;86.18;;;22.80;;
58017;SDS011;43810;50.860;19.226;2023-04-07T04:30:32;83.93;;;23.90;;
58017;SDS011;43810;50.860;19.226;2023-04-07T04:32:57;87.72;;;22.90;;
58017;SDS011;43810;50.860;19.226;2023-04-07T04:35:23;86.32;;;24.50;;
58017;SDS011;43810;50.860;19.226;2023-04-07T04:37:50;89.25;;;23.60;;
58017;SDS011;43810;50.860;19.226;2023-04-07T04:40:16;95.78;;;23.15;;
58017;SDS011;43810;50.860;19.226;2023-04-07T04:42:42;77.95;;;22.73;;
58017;SDS011;43810;50.860;19.226;2023-04-07T04:45:08;85.60;;;23.88;;
58017;SDS011;43810;50.860;19.226;2023-04-07T04:47:34;97.40;;;20.42;;
58017;SDS011;43810;50.860;19.226;2023-04-07T04:50:01;95.45;;;22.80;;
58017;SDS011;43810;50.860;19.226;2023-04-07T04:52:27;90.30;;;23.92;;
58017;SDS011;43810;50.860;19.226;2023-04-07T04:54:53;87.28;;;24.85;;
58017;SDS011;43810;50.860;19.226;2023-04-07T04:57:19;93.18;;;24.17;;
58017;SDS011;43810;50.860;19.226;2023-04-07T04:59:45;87.60;;;23.17;;
58017;SDS011;43810;50.860;19.226;2023-04-07T05:02:10;102.25;;;23.45;;
58017;SDS011;43810;50.860;19.226;2023-04-07T05:04:37;86.45;;;23.70;;
58017;SDS011;43810;50.860;19.226;2023-04-07T05:07:02;86.15;;;21.80;;
58017;SDS011;43810;50.860;19.226;2023-04-07T05:09:28;93.28;;;21.63;;
58017;SDS011;43810;50.860;19.226;2023-04-07T05:11:54;105.28;;;23.25;;
58017;SDS011;43810;50.860;19.226;2023-04-07T05:14:22;94.65;;;23.95;;
58017;SDS011;43810;50.860;19.226;2023-04-07T05:16:48;95.70;;;24.02;;
58017;SDS011;43810;50.860;19.226;2023-04-07T05:19:14;85.05;;;23.63;;
58017;SDS011;43810;50.860;19.226;2023-04-07T05:21:39;86.88;;;22.00;;
58017;SDS011;43810;50.860;19.226;2023-04-07T05:24:05;88.55;;;22.33;;
58017;SDS011;43810;50.860;19.226;2023-04-07T05:26:31;86.78;;;24.27;;
58017;SDS011;43810;50.860;19.226;2023-04-07T05:28:57;99.50;;;24.38;;
58017;SDS011;43810;50.860;19.226;2023-04-07T05:31:23;82.32;;;25.20;;
58017;SDS011;43810;50.860;19.226;2023-04-07T05:33:49;95.43;;;25.55;;
58017;SDS011;43810;50.860;19.226;2023-04-07T05:36:15;87.15;;;26.10;;
58017;SDS011;43810;50.860;19.226;2023-04-07T05:38:41;104.47;;;26.60;;
58017;SDS011;43810;50.860;19.226;2023-04-07T05:41:07;94.10;;;24.08;;
58017;SDS011;43810;50.860;19.226;2023-04-07T05:43:33;99.47;;;26.38;;
58017;SDS011;43810;50.860;19.226;2023-04-07T05:45:59;95.88;;;23.52;;
58017;SDS011;43810;50.860;19.226;2023-04-07T05:48:25;87.93;;;25.33;;
58017;SDS011;43810;50.860;19.226;2023-04-07T05:50:51;87.60;;;23.70;;
58017;SDS011;43810;50.860;19.226;2023-04-07T05:53:17;89.95;;;22.58;;
58017;SDS011;43810;50.860;19.226;2023-04-07T05:55:43;89.93;;;21.90;;
58017;SDS011;43810;50.860;19.226;2023-04-07T05:58:09;84.75;;;23.38;;
58017;SDS011;43810;50.860;19.226;2023-04-07T06:00:34;81.00;;;23.42;;
58017;SDS011;43810;50.860;19.226;2023-04-07T06:03:01;90.53;;;21.27;;
58017;SDS011;43810;50.860;19.226;2023-04-07T06:05:27;92.00;;;23.55;;
58017;SDS011;43810;50.860;19.226;2023-04-07T06:07:53;92.82;;;21.65;;
58017;SDS011;43810;50.860;19.226;2023-04-07T06:10:19;94.10;;;22.02;;
58017;SDS011;43810;50.860;19.226;2023-04-07T06:12:45;83.40;;;23.35;;
58017;SDS011;43810;50.860;19.226;2023-04-07T06:15:11;93.70;;;20.70;;
58017;SDS011;43810;50.860;19.226;2023-04-07T06:17:37;95.50;;;21.90;;
58017;SDS011;43810;50.860;19.226;2023-04-07T06:20:03;97.15;;;23.17;;
58017;SDS011;43810;50.860;19.226;2023-04-07T06:22:29;108.15;;;24.13;;
58017;SDS011;43810;50.860;19.226;2023-04-07T06:24:55;93.15;;;23.92;;
58017;SDS011;43810;50.860;19.226;2023-04-07T06:27:21;96.35;;;24.63;;
58017;SDS011;43810;50.860;19.226;2023-04-07T06:29:47;100.45;;;23.00;;
58017;SDS011;43810;50.860;19.226;2023-04-07T06:32:13;100.60;;;22.02;;
58017;SDS011;43810;50.860;19.226;2023-04-07T06:34:38;92.10;;;22.40;;
58017;SDS011;43810;50.860;19.226;2023-04-07T06:37:04;86.53;;;23.48;;
58017;SDS011;43810;50.860;19.226;2023-04-07T06:39:31;105.50;;;24.35;;
58017;SDS011;43810;50.860;19.226;2023-04-07T06:41:57;98.40;;;21.55;;
58017;SDS011;43810;50.860;19.226;2023-04-07T06:44:22;114.78;;;23.75;;
58017;SDS011;43810;50.860;19.226;2023-04-07T06:46:48;97.18;;;23.20;;
58017;SDS011;43810;50.860;19.226;2023-04-07T06:49:17;100.70;;;22.55;;
58017;SDS011;43810;50.860;19.226;2023-04-07T06:51:44;77.25;;;20.77;;
58017;SDS011;43810;50.860;19.226;2023-04-07T06:54:10;87.13;;;21.83;;
58017;SDS011;43810;50.860;19.226;2023-04-07T06:56:40;89.57;;;19.58;;
58017;SDS011;43810;50.860;19.226;2023-04-07T06:59:06;85.68;;;22.38;;
58017;SDS011;43810;50.860;19.226;2023-04-07T07:01:33;76.07;;;19.90;;
58017;SDS011;43810;50.860;19.226;2023-04-07T07:03:58;95.25;;;21.83;;
58017;SDS011;43810;50.860;19.226;2023-04-07T07:06:27;81.97;;;20.60;;
58017;SDS011;43810;50.860;19.226;2023-04-07T07:08:53;91.43;;;22.52;;
58017;SDS011;43810;50.860;19.226;2023-04-07T07:11:20;86.30;;;21.20;;
58017;SDS011;43810;50.860;19.226;2023-04-07T07:13:45;88.32;;;21.52;;
58017;SDS011;43810;50.860;19.226;2023-04-07T07:16:12;83.95;;;21.35;;
58017;SDS011;43810;50.860;19.226;2023-04-07T07:18:38;82.93;;;21.83;;
58017;SDS011;43810;50.860;19.226;2023-04-07T07:21:04;76.72;;;21.13;;
58017;SDS011;43810;50.860;19.226;2023-04-07T07:23:30;105.25;;;23.80;;
58017;SDS011;43810;50.860;19.226;2023-04-07T07:25:56;108.55;;;25.15;;
58017;SDS011;43810;50.860;19.226;2023-04-07T07:28:21;90.03;;;22.65;;
58017;SDS011;43810;50.860;19.226;2023-04-07T07:30:48;92.38;;;23.85;;
58017;SDS011;43810;50.860;19.226;2023-04-07T07:33:14;92.05;;;22.65;;
58017;SDS011;43810;50.860;19.226;2023-04-07T07:35:40;112.97;;;23.25;;
58017;SDS011;43810;50.860;19.226;2023-04-07T07:38:08;83.15;;;22.33;;
58017;SDS011;43810;50.860;19.226;2023-04-07T07:40:34;98.75;;;22.95;;
58017;SDS011;43810;50.860;19.226;2023-04-07T07:43:00;101.03;;;22.52;;
58017;SDS011;43810;50.860;19.226;2023-04-07T07:45:26;99.50;;;23.05;;
58017;SDS011;43810;50.860;19.226;2023-04-07T07:47:52;93.80;;;22.52;;
58017;SDS011;43810;50.860;19.226;2023-04-07T07:50:18;96.25;;;24.45;;
58017;SDS011;43810;50.860;19.226;2023-04-07T07:52:43;81.93;;;23.77;;
58017;SDS011;43810;50.860;19.226;2023-04-07T07:55:10;82.35;;;23.50;;
58017;SDS011;43810;50.860;19.226;2023-04-07T07:57:36;70.85;;;20.45;;
58017;SDS011;43810;50.860;19.226;2023-04-07T08:00:02;84.70;;;22.77;;
58017;SDS011;43810;50.860;19.226;2023-04-07T08:02:28;69.90;;;20.55;;
58017;SDS011;43810;50.860;19.226;2023-04-07T08:04:57;86.03;;;20.55;;
58017;SDS011;43810;50.860;19.226;2023-04-07T08:07:22;79.38;;;21.95;;
58017;SDS011;43810;50.860;19.226;2023-04-07T08:09:49;80.15;;;21.23;;
58017;SDS011;43810;50.860;19.226;2023-04-07T08:12:14;85.55;;;21.05;;
58017;SDS011;43810;50.860;19.226;2023-04-07T08:14:40;75.03;;;19.92;;
58017;SDS011;43810;50.860;19.226;2023-04-07T08:17:06;79.00;;;19.58;;
58017;SDS011;43810;50.860;19.226;2023-04-07T08:19:32;91.93;;;20.80;;
58017;SDS011;43810;50.860;19.226;2023-04-07T08:21:58;80.00;;;19.95;;
58017;SDS011;43810;50.860;19.226;2023-04-07T08:24:24;79.45;;;19.13;;
58017;SDS011;43810;50.860;19.226;2023-04-07T08:26:50;87.60;;;20.55;;
58017;SDS011;43810;50.860;19.226;2023-04-07T08:29:15;63.95;;;18.38;;
58017;SDS011;43810;50.860;19.226;2023-04-07T08:31:41;72.13;;;20.65;;
58017;SDS011;43810;50.860;19.226;2023-04-07T08:34:07;64.45;;;18.48;;
58017;SDS011;43810;50.860;19.226;2023-04-07T08:36:33;76.60;;;20.42;;
58017;SDS011;43810;50.860;19.226;2023-04-07T08:38:59;71.88;;;21.58;;
58017;SDS011;43810;50.860;19.226;2023-04-07T08:41:28;72.93;;;21.75;;
58017;SDS011;43810;50.860;19.226;2023-04-07T08:43:58;78.07;;;21.80;;
58017;SDS011;43810;50.860;19.226;2023-04-07T08:46:25;71.45;;;21.30;;
58017;SDS011;43810;50.860;19.226;2023-04-07T08:48:54;76.15;;;20.20;;
58017;SDS011;43810;50.860;19.226;2023-04-07T08:51:26;65.47;;;20.38;;
58017;SDS011;43810;50.860;19.226;2023-04-07T08:53:58;76.57;;;21.95;;
58017;SDS011;43810;50.860;19.226;2023-04-07T08:56:31;89.25;;;23.50;;
58017;SDS011;43810;50.860;19.226;2023-04-07T08:58:59;72.13;;;20.25;;
58017;SDS011;43810;50.860;19.226;2023-04-07T09:01:30;70.57;;;19.52;;
58017;SDS011;43810;50.860;19.226;2023-04-07T09:04:00;82.68;;;21.90;;
58017;SDS011;43810;50.860;19.226;2023-04-07T09:06:28;74.32;;;22.45;;
58017;SDS011;43810;50.860;19.226;2023-04-07T09:09:00;67.57;;;21.10;;
58017;SDS011;43810;50.860;19.226;2023-04-07T09:11:26;60.33;;;18.50;;
58017;SDS011;43810;50.860;19.226;2023-04-07T09:13:55;60.70;;;18.73;;
58017;SDS011;43810;50.860;19.226;2023-04-07T09:16:21;60.33;;;19.20;;
58017;SDS011;43810;50.860;19.226;2023-04-07T09:18:51;63.13;;;19.35;;
58017;SDS011;43810;50.860;19.226;2023-04-07T09:21:17;77.18;;;21.23;;
58017;SDS011;43810;50.860;19.226;2023-04-07T09:23:44;54.28;;;16.55;;
58017;SDS011;43810;50.860;19.226;2023-04-07T09:26:20;68.68;;;20.15;;
58017;SDS011;43810;50.860;19.226;2023-04-07T09:28:54;77.20;;;20.83;;
58017;SDS011;43810;50.860;19.226;2023-04-07T09:34:27;65.10;;;19.23;;
58017;SDS011;43810;50.860;19.226;2023-04-07T09:36:54;76.05;;;22.75;;
58017;SDS011;43810;50.860;19.226;2023-04-07T09:39:22;74.70;;;22.08;;
58017;SDS011;43810;50.860;19.226;2023-04-07T09:41:48;93.07;;;25.67;;
58017;SDS011;43810;50.860;19.226;2023-04-07T09:44:14;71.90;;;23.38;;
58017;SDS011;43810;50.860;19.226;2023-04-07T09:46:56;78.57;;;23.17;;
58017;SDS011;43810;50.860;19.226;2023-04-07T09:49:24;93.28;;;23.98;;
58017;SDS011;43810;50.860;19.226;2023-04-07T09:51:57;88.35;;;23.77;;
58017;SDS011;43810;50.860;19.226;2023-04-07T09:54:39;99.03;;;24.83;;
58017;SDS011;43810;50.860;19.226;2023-04-07T09:57:06;112.70;;;29.27;;
58017;SDS011;43810;50.860;19.226;2023-04-07T09:59:35;118.25;;;28.45;;
58017;SDS011;43810;50.860;19.226;2023-04-07T10:02:02;105.05;;;26.98;;
58017;SDS011;43810;50.860;19.226;2023-04-07T10:04:29;97.70;;;25.73;;
58017;SDS011;43810;50.860;19.226;2023-04-07T10:06:55;98.00;;;27.17;;
58017;SDS011;43810;50.860;19.226;2023-04-07T10:09:23;95.70;;;25.40;;
58017;SDS011;43810;50.860;19.226;2023-04-07T10:11:51;100.60;;;24.48;;
58017;SDS011;43810;50.860;19.226;2023-04-07T10:14:19;92.97;;;24.08;;
58017;SDS011;43810;50.860;19.226;2023-04-07T10:16:48;100.07;;;26.70;;
58017;SDS011;43810;50.860;19.226;2023-04-07T10:19:16;106.07;;;26.67;;
58017;SDS011;43810;50.860;19.226;2023-04-07T10:21:43;102.68;;;26.80;;
58017;SDS011;43810;50.860;19.226;2023-04-07T10:27:08;93.90;;;25.38;;
58017;SDS011;43810;50.860;19.226;2023-04-07T10:29:36;94.93;;;24.73;;
58017;SDS011;43810;50.860;19.226;2023-04-07T10:32:05;89.65;;;23.63;;
58017;SDS011;43810;50.860;19.226;2023-04-07T10:37:19;100.90;;;24.38;;
58017;SDS011;43810;50.860;19.226;2023-04-07T10:39:47;84.40;;;23.27;;
58017;SDS011;43810;50.860;19.226;2023-04-07T10:42:59;89.65;;;22.63;;
58017;SDS011;43810;50.860;19.226;2023-04-07T10:45:08;90.47;;;23.40;;
58017;SDS011;43810;50.860;19.226;2023-04-07T10:47:35;101.57;;;24.08;;
58017;SDS011;43810;50.860;19.226;2023-04-07T10:50:23;96.93;;;25.60;;
58017;SDS011;43810;50.860;19.226;2023-04-07T10:53:06;115.57;;;24.85;;
58017;SDS011;43810;50.860;19.226;2023-04-07T10:58:19;84.28;;;24.05;;
58017;SDS011;43810;50.860;19.226;2023-04-07T11:03:41;74.43;;;23.13;;
58017;SDS011;43810;50.860;19.226;2023-04-07T11:06:17;86.25;;;21.90;;
58017;SDS011;43810;50.860;19.226;2023-04-07T11:08:43;79.72;;;20.55;;
58017;SDS011;43810;50.860;19.226;2023-04-07T11:11:11;94.80;;;22.63;;
58017;SDS011;43810;50.860;19.226;2023-04-07T11:13:49;74.97;;;20.55;;
58017;SDS011;43810;50.860;19.226;2023-04-07T11:16:18;76.88;;;20.85;;
58017;SDS011;43810;50.860;19.226;2023-04-07T11:18:52;62.45;;;18.42;;
58017;SDS011;43810;50.860;19.226;2023-04-07T11:21:21;76.65;;;19.83;;
58017;SDS011;43810;50.860;19.226;2023-04-07T11:23:47;73.03;;;19.25;;
58017;SDS011;43810;50.860;19.226;2023-04-07T11:26:13;75.03;;;21.58;;
58017;SDS011;43810;50.860;19.226;2023-04-07T11:28:47;65.45;;;19.92;;
58017;SDS011;43810;50.860;19.226;2023-04-07T11:31:24;82.55;;;21.83;;
58017;SDS011;43810;50.860;19.226;2023-04-07T11:33:51;65.10;;;19.77;;
58017;SDS011;43810;50.860;19.226;2023-04-07T11:38:53;70.93;;;21.30;;
58017;SDS011;43810;50.860;19.226;2023-04-07T11:41:20;69.57;;;20.98;;
58017;SDS011;43810;50.860;19.226;2023-04-07T11:43:45;80.50;;;23.75;;
58017;SDS011;43810;50.860;19.226;2023-04-07T11:46:15;71.45;;;20.98;;
58017;SDS011;43810;50.860;19.226;2023-04-07T11:48:42;68.25;;;20.95;;
58017;SDS011;43810;50.860;19.226;2023-04-07T11:51:16;79.22;;;23.80;;
58017;SDS011;43810;50.860;19.226;2023-04-07T11:53:43;93.28;;;24.40;;
58017;SDS011;43810;50.860;19.226;2023-04-07T11:56:11;76.93;;;23.00;;
58017;SDS011;43810;50.860;19.226;2023-04-07T11:58:51;79.70;;;21.77;;
58017;SDS011;43810;50.860;19.226;2023-04-07T12:01:18;76.18;;;21.15;;
58017;SDS011;43810;50.860;19.226;2023-04-07T12:04:01;74.03;;;21.33;;
58017;SDS011;43810;50.860;19.226;2023-04-07T12:06:29;72.32;;;22.85;;
58017;SDS011;43810;50.860;19.226;2023-04-07T12:09:02;69.38;;;22.65;;
58017;SDS011;43810;50.860;19.226;2023-04-07T12:11:29;65.13;;;21.50;;
58017;SDS011;43810;50.860;19.226;2023-04-07T12:13:56;71.82;;;20.20;;
58017;SDS011;43810;50.860;19.226;2023-04-07T12:16:22;72.13;;;20.80;;
58017;SDS011;43810;50.860;19.226;2023-04-07T12:18:49;73.63;;;22.63;;
58017;SDS011;43810;50.860;19.226;2023-04-07T12:21:19;63.05;;;20.02;;
58017;SDS011;43810;50.860;19.226;2023-04-07T12:23:45;68.43;;;20.63;;
58017;SDS011;43810;50.860;19.226;2023-04-07T12:26:12;58.25;;;19.13;;
58017;SDS011;43810;50.860;19.226;2023-04-07T12:28:38;65.50;;;19.88;;
58017;SDS011;43810;50.860;19.226;2023-04-07T12:31:04;66.45;;;20.85;;
58017;SDS011;43810;50.860;19.226;2023-04-07T12:33:30;64.07;;;20.63;;
58017;SDS011;43810;50.860;19.226;2023-04-07T12:35:57;81.78;;;22.75;;
58017;SDS011;43810;50.860;19.226;2023-04-07T12:38:23;73.18;;;23.67;;
58017;SDS011;43810;50.860;19.226;2023-04-07T12:40:49;74.82;;;22.50;;
58017;SDS011;43810;50.860;19.226;2023-04-07T12:43:15;73.88;;;24.95;;
58017;SDS011;43810;50.860;19.226;2023-04-07T12:45:42;84.20;;;25.98;;
58017;SDS011;43810;50.860;19.226;2023-04-07T12:48:07;71.10;;;23.83;;
58017;SDS011;43810;50.860;19.226;2023-04-07T12:50:37;76.68;;;22.17;;
58017;SDS011;43810;50.860;19.226;2023-04-07T12:53:02;75.28;;;22.73;;
58017;SDS011;43810;50.860;19.226;2023-04-07T12:55:30;65.97;;;22.65;;
58017;SDS011;43810;50.860;19.226;2023-04-07T12:58:00;65.57;;;20.27;;
58017;SDS011;43810;50.860;19.226;2023-04-07T13:00:26;66.35;;;21.42;;
58017;SDS011;43810;50.860;19.226;2023-04-07T13:02:53;62.70;;;17.80;;
58017;SDS011;43810;50.860;19.226;2023-04-07T13:05:19;70.15;;;20.67;;
58017;SDS011;43810;50.860;19.226;2023-04-07T13:07:45;63.25;;;17.98;;
58017;SDS011;43810;50.860;19.226;2023-04-07T13:10:11;69.32;;;19.60;;
58017;SDS011;43810;50.860;19.226;2023-04-07T13:12:36;58.30;;;18.73;;
58017;SDS011;43810;50.860;19.226;2023-04-07T13:15:04;66.32;;;21.08;;
58017;SDS011;43810;50.860;19.226;2023-04-07T13:17:31;61.95;;;20.00;;
58017;SDS011;43810;50.860;19.226;2023-04-07T13:19:57;80.30;;;21.80;;
58017;SDS011;43810;50.860;19.226;2023-04-07T13:22:22;65.82;;;21.50;;
58017;SDS011;43810;50.860;19.226;2023-04-07T13:24:48;72.47;;;22.05;;
58017;SDS011;43810;50.860;19.226;2023-04-07T13:27:14;62.63;;;18.13;;
58017;SDS011;43810;50.860;19.226;2023-04-07T13:29:40;68.05;;;21.80;;
58017;SDS011;43810;50.860;19.226;2023-04-07T13:32:07;63.83;;;20.33;;
58017;SDS011;43810;50.860;19.226;2023-04-07T13:34:35;70.45;;;21.08;;
58017;SDS011;43810;50.860;19.226;2023-04-07T13:37:01;75.25;;;21.63;;
58017;SDS011;43810;50.860;19.226;2023-04-07T13:39:28;76.65;;;22.58;;
58017;SDS011;43810;50.860;19.226;2023-04-07T13:41:54;75.75;;;25.73;;
58017;SDS011;43810;50.860;19.226;2023-04-07T13:44:21;62.97;;;20.38;;
58017;SDS011;43810;50.860;19.226;2023-04-07T13:46:46;79.93;;;22.25;;
58017;SDS011;43810;50.860;19.226;2023-04-07T13:49:13;70.72;;;20.60;;
58017;SDS011;43810;50.860;19.226;2023-04-07T13:51:39;76.30;;;22.50;;
58017;SDS011;43810;50.860;19.226;2023-04-07T13:54:09;80.20;;;21.88;;
58017;SDS011;43810;50.860;19.226;2023-04-07T13:56:34;61.47;;;20.15;;
58017;SDS011;43810;50.860;19.226;2023-04-07T13:59:06;67.32;;;21.05;;
58017;SDS011;43810;50.860;19.226;2023-04-07T14:01:33;63.10;;;21.38;;
58017;SDS011;43810;50.860;19.226;2023-04-07T14:04:00;54.63;;;18.85;;
58017;SDS011;43810;50.860;19.226;2023-04-07T14:06:27;48.67;;;16.48;;
58017;SDS011;43810;50.860;19.226;2023-04-07T14:08:53;50.97;;;17.83;;
58017;SDS011;43810;50.860;19.226;2023-04-07T14:11:19;47.75;;;16.50;;
58017;SDS011;43810;50.860;19.226;2023-04-07T14:13:47;60.38;;;19.98;;
58017;SDS011;43810;50.860;19.226;2023-04-07T14:16:13;52.60;;;17.90;;
58017;SDS011;43810;50.860;19.226;2023-04-07T14:18:40;55.08;;;17.35;;
58017;SDS011;43810;50.860;19.226;2023-04-07T14:21:06;54.88;;;17.38;;
58017;SDS011;43810;50.860;19.226;2023-04-07T14:23:33;54.88;;;19.25;;
58017;SDS011;43810;50.860;19.226;2023-04-07T14:25:59;58.83;;;20.58;;
58017;SDS011;43810;50.860;19.226;2023-04-07T14:28:25;71.05;;;20.33;;
58017;SDS011;43810;50.860;19.226;2023-04-07T14:30:51;75.10;;;22.02;;
58017;SDS011;43810;50.860;19.226;2023-04-07T14:33:19;50.85;;;16.98;;
58017;SDS011;43810;50.860;19.226;2023-04-07T14:35:46;48.92;;;17.52;;